Enterprise — WYB2848 — position and weather

sailwx.info

Track history (hours):
 
Tides and Currents Weather Stations Pressure Air Temp Water Temp Dewpoint Dewpoint Depression Visibility Wind Speed Wind Dir Waves Ship Positions

Enterprise

Owner: SEAL BEACH ANGLERS, INC, LONG BEACH, CA. More information available from US FCC via Universal Licensing System and Coast Guard Vessel Documentation Center.

Last reported at 2017-Oct-15 23:15 UTC. Time now 2017-Oct-17 15:47 UTC.
Position N 33°46' W 118°12'.

Type: Ship. MMSI: 367095040.

Date/timePositionNaut miles runAvg speedWind from/ knotsBaromVisibWave heightAir tempDewpointWater temp
2017-Oct-15 23:15N 33°46' W 118°12'1 4.1
2017-Oct-15 23:00N 33°45' W 118°11'4 7.8
2017-Oct-15 22:31N 33°41' W 118°11'4 7.6
2017-Oct-15 21:59N 33°38' W 118°14'3 5.7
2017-Oct-15 21:29N 33°36' W 118°16'0 0.4
2017-Oct-15 20:12N 33°36' W 118°16'0 0.8
2017-Oct-15 20:00N 33°36' W 118°16'0 0.0
2017-Oct-15 19:30N 33°36' W 118°16'0 0.0
2017-Oct-15 19:01N 33°36' W 118°16'2 3.3
2017-Oct-15 18:31N 33°35' W 118°14'4 8.3
2017-Oct-15 18:00N 33°34' W 118°09'1 0.2
2017-Oct-15 15:01N 33°35' W 118°09'0 8.2
2017-Oct-15 15:01N 33°35' W 118°09'8 8.4
2017-Oct-15 14:01N 33°43' W 118°08'1 2.3
2017-Oct-15 13:30N 33°44' W 118°09'3 0.2
2017-Oct-15 00:25N 33°46' W 118°12'3 6.6
2017-Oct-15 00:00N 33°43' W 118°11'4 8.4
2017-Oct-14 23:30N 33°39' W 118°13'5 9.1
2017-Oct-14 23:00N 33°36' W 118°17'4 9.0
2017-Oct-14 22:31N 33°33' W 118°21'4 8.8
2017-Oct-14 22:00N 33°30' W 118°25'4 8.9
2017-Oct-14 21:30N 33°27' W 118°29'0 0.4
2017-Oct-14 21:00N 33°27' W 118°29'1 2.0
2017-Oct-14 20:30N 33°28' W 118°30'1 2.0
2017-Oct-14 20:00N 33°28' W 118°31'0 0.0
2017-Oct-14 19:30N 33°28' W 118°31'0 0.4
2017-Oct-14 19:00N 33°28' W 118°31'1 2.4
2017-Oct-14 18:30N 33°27' W 118°30'1 1.0
2017-Oct-14 17:59N 33°27' W 118°29'0 0.0
2017-Oct-14 17:31N 33°27' W 118°29'0 0.1
2017-Oct-14 16:54N 33°27' W 118°29'3 8.7
2017-Oct-14 16:30N 33°29' W 118°26'4 8.6
2017-Oct-14 16:00N 33°32' W 118°22'4 8.6
2017-Oct-14 15:29N 33°35' W 118°18'5 8.7
2017-Oct-14 14:56N 33°39' W 118°14'4 8.6
2017-Oct-14 14:30N 33°41' W 118°11'3 6.2
2017-Oct-14 14:00N 33°44' W 118°08'2 4.1
2017-Oct-14 13:27N 33°45' W 118°11'1 1.9
2017-Oct-14 12:46N 33°46' W 118°12'0 0.0
2017-Oct-13 22:30N 33°46' W 118°12'3 5.4
2017-Oct-13 22:00N 33°45' W 118°09'1 2.8
2017-Oct-13 21:30N 33°43' W 118°08'4 8.4
2017-Oct-13 21:00N 33°40' W 118°06'1 1.9
2017-Oct-13 20:30N 33°39' W 118°06'3 7.0
2017-Oct-13 20:00N 33°36' W 118°09'1 2.4
2017-Oct-13 19:30N 33°35' W 118°10'0 0.2
2017-Oct-13 19:00N 33°35' W 118°10'2 2.8
2017-Oct-13 18:28N 33°34' W 118°09'0 1.0
2017-Oct-13 18:00N 33°33' W 118°09'0 0.0
2017-Oct-13 17:30N 33°33' W 118°09'1 2.1
2017-Oct-13 17:00N 33°34' W 118°09'1 1.5
2017-Oct-13 16:30N 33°34' W 118°09'1 1.3
2017-Oct-13 15:57N 33°33' W 118°08'0 0.2
2017-Oct-13 15:30N 33°33' W 118°08'2 4.2
2017-Oct-13 15:00N 33°36' W 118°08'4 8.6
2017-Oct-13 14:29N 33°40' W 118°08'3 7.0
2017-Oct-13 13:59N 33°44' W 118°08'2 4.6
2017-Oct-13 13:30N 33°45' W 118°11'1 0.1
2017-Oct-12 22:57N 33°46' W 118°12'3 6.6
2017-Oct-12 22:30N 33°43' W 118°11'3 4.9
2017-Oct-12 21:53N 33°41' W 118°13'0 0.0
2017-Oct-12 21:30N 33°41' W 118°13'0 0.0
2017-Oct-12 21:00N 33°41' W 118°13'2 3.0
2017-Oct-12 20:30N 33°39' W 118°14'4 7.6
2017-Oct-12 19:58N 33°36' W 118°10'1 2.0
2017-Oct-12 19:29N 33°35' W 118°10'0 0.0
2017-Oct-12 19:00N 33°35' W 118°10'2 1.2
2017-Oct-12 17:07N 33°33' W 118°08'0 0.2
2017-Oct-12 16:58N 33°33' W 118°08'0 0.9
2017-Oct-12 16:30N 33°33' W 118°09'0 0.5
2017-Oct-12 15:52N 33°33' W 118°09'0 0.1
2017-Oct-12 15:21N 33°33' W 118°09'1 2.0
2017-Oct-12 14:56N 33°34' W 118°09'4 8.3
2017-Oct-12 14:30N 33°38' W 118°09'4 8.5
2017-Oct-12 14:00N 33°42' W 118°08'2 3.8
2017-Oct-12 13:29N 33°44' W 118°09'  
2017-Oct-07 22:25N 33°46' W 118°12'1 2.4
2017-Oct-07 22:00N 33°45' W 118°11'4 8.1
2017-Oct-07 21:30N 33°41' W 118°11'4 8.1
2017-Oct-07 21:00N 33°38' W 118°14'1 1.3
2017-Oct-07 20:30N 33°37' W 118°14'2 3.3
2017-Oct-07 20:00N 33°36' W 118°16'0 0.3
2017-Oct-07 19:30N 33°36' W 118°16'0 0.0
2017-Oct-07 19:00N 33°36' W 118°16'3 6.9
2017-Oct-07 18:30N 33°35' W 118°11'2 3.1
2017-Oct-07 18:00N 33°35' W 118°10'2 3.1
2017-Oct-07 17:30N 33°34' W 118°09'1 0.5
2017-Oct-07 15:14N 33°35' W 118°08'2 8.2
2017-Oct-07 15:01N 33°37' W 118°08'4 8.3
2017-Oct-07 14:30N 33°41' W 118°08'2 4.5
2017-Oct-07 14:00N 33°44' W 118°08'3 6.1
2017-Oct-07 13:30N 33°45' W 118°11'0 0.0
2017-Oct-06 22:13N 33°46' W 118°12'0 0.0
2017-Oct-06 22:00N 33°46' W 118°12'0 0.0
2017-Oct-06 21:28N 33°46' W 118°12'1 2.9
2017-Oct-06 21:00N 33°45' W 118°11'5 8.8
2017-Oct-06 20:26N 33°40' W 118°13'2 5.4
2017-Oct-06 20:00N 33°40' W 118°16'0 0.0
2017-Oct-06 19:30N 33°40' W 118°16'2 3.4
2017-Oct-06 19:00N 33°39' W 118°16'3 5.9
2017-Oct-06 18:30N 33°36' W 118°16'1 1.2
2017-Oct-06 18:00N 33°36' W 118°16'2 3.2
2017-Oct-06 17:30N 33°35' W 118°14'4 1.6
2017-Oct-06 14:56N 33°35' W 118°09'4 8.2
2017-Oct-06 14:30N 33°39' W 118°09'4 8.3
2017-Oct-06 14:00N 33°43' W 118°08'2 3.4
2017-Oct-06 13:30N 33°44' W 118°10'2 4.5
2017-Oct-06 13:00N 33°46' W 118°12'0 0.0
2017-Oct-06 12:31N 33°46' W 118°12'0 0.0
2017-Oct-05 23:39N 33°46' W 118°12'0 3.1
2017-Oct-05 23:30N 33°45' W 118°11'  
Track history (hours):
 
Tides and Currents Weather Stations Pressure Air Temp Water Temp Dewpoint Dewpoint Depression Visibility Wind Speed Wind Dir Waves Ship Positions

Enterprise

Owner: SEAL BEACH ANGLERS, INC, LONG BEACH, CA. More information available from US FCC via Universal Licensing System and Coast Guard Vessel Documentation Center.

Last reported at 2017-Oct-15 23:15 UTC. Time now 2017-Oct-17 15:47 UTC.
Position N 33°46' W 118°12'.

Type: Ship. MMSI: 367095040.

Date/timePositionNaut miles runAvg speedWind from/ knotsBaromVisibWave heightAir tempDewpointWater temp
2017-Oct-15 23:15N 33°46' W 118°12'1 4.1
2017-Oct-15 23:00N 33°45' W 118°11'4 7.8
2017-Oct-15 22:31N 33°41' W 118°11'4 7.6
2017-Oct-15 21:59N 33°38' W 118°14'3 5.7
2017-Oct-15 21:29N 33°36' W 118°16'0 0.4
2017-Oct-15 20:12N 33°36' W 118°16'0 0.8
2017-Oct-15 20:00N 33°36' W 118°16'0 0.0
2017-Oct-15 19:30N 33°36' W 118°16'0 0.0
2017-Oct-15 19:01N 33°36' W 118°16'2 3.3
2017-Oct-15 18:31N 33°35' W 118°14'4 8.3
2017-Oct-15 18:00N 33°34' W 118°09'1 0.2
2017-Oct-15 15:01N 33°35' W 118°09'0 8.2
2017-Oct-15 15:01N 33°35' W 118°09'8 8.4
2017-Oct-15 14:01N 33°43' W 118°08'1 2.3
2017-Oct-15 13:30N 33°44' W 118°09'3 0.2
2017-Oct-15 00:25N 33°46' W 118°12'3 6.6
2017-Oct-15 00:00N 33°43' W 118°11'4 8.4
2017-Oct-14 23:30N 33°39' W 118°13'5 9.1
2017-Oct-14 23:00N 33°36' W 118°17'4 9.0
2017-Oct-14 22:31N 33°33' W 118°21'4 8.8
2017-Oct-14 22:00N 33°30' W 118°25'4 8.9
2017-Oct-14 21:30N 33°27' W 118°29'0 0.4
2017-Oct-14 21:00N 33°27' W 118°29'1 2.0
2017-Oct-14 20:30N 33°28' W 118°30'1 2.0
2017-Oct-14 20:00N 33°28' W 118°31'0 0.0
2017-Oct-14 19:30N 33°28' W 118°31'0 0.4
2017-Oct-14 19:00N 33°28' W 118°31'1 2.4
2017-Oct-14 18:30N 33°27' W 118°30'1 1.0
2017-Oct-14 17:59N 33°27' W 118°29'0 0.0
2017-Oct-14 17:31N 33°27' W 118°29'0 0.1
2017-Oct-14 16:54N 33°27' W 118°29'3 8.7
2017-Oct-14 16:30N 33°29' W 118°26'4 8.6
2017-Oct-14 16:00N 33°32' W 118°22'4 8.6
2017-Oct-14 15:29N 33°35' W 118°18'5 8.7
2017-Oct-14 14:56N 33°39' W 118°14'4 8.6
2017-Oct-14 14:30N 33°41' W 118°11'3 6.2
2017-Oct-14 14:00N 33°44' W 118°08'2 4.1
2017-Oct-14 13:27N 33°45' W 118°11'1 1.9
2017-Oct-14 12:46N 33°46' W 118°12'0 0.0
2017-Oct-13 22:30N 33°46' W 118°12'3 5.4
2017-Oct-13 22:00N 33°45' W 118°09'1 2.8
2017-Oct-13 21:30N 33°43' W 118°08'4 8.4
2017-Oct-13 21:00N 33°40' W 118°06'1 1.9
2017-Oct-13 20:30N 33°39' W 118°06'3 7.0
2017-Oct-13 20:00N 33°36' W 118°09'1 2.4
2017-Oct-13 19:30N 33°35' W 118°10'0 0.2
2017-Oct-13 19:00N 33°35' W 118°10'2 2.8
2017-Oct-13 18:28N 33°34' W 118°09'0 1.0
2017-Oct-13 18:00N 33°33' W 118°09'0 0.0
2017-Oct-13 17:30N 33°33' W 118°09'1 2.1
2017-Oct-13 17:00N 33°34' W 118°09'1 1.5
2017-Oct-13 16:30N 33°34' W 118°09'1 1.3
2017-Oct-13 15:57N 33°33' W 118°08'0 0.2
2017-Oct-13 15:30N 33°33' W 118°08'2 4.2
2017-Oct-13 15:00N 33°36' W 118°08'4 8.6
2017-Oct-13 14:29N 33°40' W 118°08'3 7.0
2017-Oct-13 13:59N 33°44' W 118°08'2 4.6
2017-Oct-13 13:30N 33°45' W 118°11'1 0.1
2017-Oct-12 22:57N 33°46' W 118°12'3 6.6
2017-Oct-12 22:30N 33°43' W 118°11'3 4.9
2017-Oct-12 21:53N 33°41' W 118°13'0 0.0
2017-Oct-12 21:30N 33°41' W 118°13'0 0.0
2017-Oct-12 21:00N 33°41' W 118°13'2 3.0
2017-Oct-12 20:30N 33°39' W 118°14'4 7.6
2017-Oct-12 19:58N 33°36' W 118°10'1 2.0
2017-Oct-12 19:29N 33°35' W 118°10'0 0.0
2017-Oct-12 19:00N 33°35' W 118°10'2 1.2
2017-Oct-12 17:07N 33°33' W 118°08'0 0.2
2017-Oct-12 16:58N 33°33' W 118°08'0 0.9
2017-Oct-12 16:30N 33°33' W 118°09'0 0.5
2017-Oct-12 15:52N 33°33' W 118°09'0 0.1
2017-Oct-12 15:21N 33°33' W 118°09'1 2.0
2017-Oct-12 14:56N 33°34' W 118°09'4 8.3
2017-Oct-12 14:30N 33°38' W 118°09'4 8.5
2017-Oct-12 14:00N 33°42' W 118°08'2 3.8
2017-Oct-12 13:29N 33°44' W 118°09'  
2017-Oct-07 22:25N 33°46' W 118°12'1 2.4
2017-Oct-07 22:00N 33°45' W 118°11'4 8.1
2017-Oct-07 21:30N 33°41' W 118°11'4 8.1
2017-Oct-07 21:00N 33°38' W 118°14'1 1.3
2017-Oct-07 20:30N 33°37' W 118°14'2 3.3
2017-Oct-07 20:00N 33°36' W 118°16'0 0.3
2017-Oct-07 19:30N 33°36' W 118°16'0 0.0
2017-Oct-07 19:00N 33°36' W 118°16'3 6.9
2017-Oct-07 18:30N 33°35' W 118°11'2 3.1
2017-Oct-07 18:00N 33°35' W 118°10'2 3.1
2017-Oct-07 17:30N 33°34' W 118°09'1 0.5
2017-Oct-07 15:14N 33°35' W 118°08'2 8.2
2017-Oct-07 15:01N 33°37' W 118°08'4 8.3
2017-Oct-07 14:30N 33°41' W 118°08'2 4.5
2017-Oct-07 14:00N 33°44' W 118°08'3 6.1
2017-Oct-07 13:30N 33°45' W 118°11'0 0.0
2017-Oct-06 22:13N 33°46' W 118°12'0 0.0
2017-Oct-06 22:00N 33°46' W 118°12'0 0.0
2017-Oct-06 21:28N 33°46' W 118°12'1 2.9
2017-Oct-06 21:00N 33°45' W 118°11'5 8.8
2017-Oct-06 20:26N 33°40' W 118°13'2 5.4
2017-Oct-06 20:00N 33°40' W 118°16'0 0.0
2017-Oct-06 19:30N 33°40' W 118°16'2 3.4
2017-Oct-06 19:00N 33°39' W 118°16'3 5.9
2017-Oct-06 18:30N 33°36' W 118°16'1 1.2
2017-Oct-06 18:00N 33°36' W 118°16'2 3.2
2017-Oct-06 17:30N 33°35' W 118°14'4 1.6
2017-Oct-06 14:56N 33°35' W 118°09'4 8.2
2017-Oct-06 14:30N 33°39' W 118°09'4 8.3
2017-Oct-06 14:00N 33°43' W 118°08'2 3.4
2017-Oct-06 13:30N 33°44' W 118°10'2 4.5
2017-Oct-06 13:00N 33°46' W 118°12'0 0.0
2017-Oct-06 12:31N 33°46' W 118°12'0 0.0
2017-Oct-05 23:39N 33°46' W 118°12'0 3.1
2017-Oct-05 23:30N 33°45' W 118°11'  

Dump ship's entire track history